sensor_id;sensor_type;location;lat;lon;timestamp;temperature;humidity
25556;DHT22;13447;57.174;-2.112;2022-07-29T00:01:40;15.20;99.90
25556;DHT22;13447;57.174;-2.112;2022-07-29T00:04:07;15.20;99.90
25556;DHT22;13447;57.174;-2.112;2022-07-29T00:06:34;15.20;99.90
25556;DHT22;13447;57.174;-2.112;2022-07-29T00:09:01;15.20;99.90
25556;DHT22;13447;57.174;-2.112;2022-07-29T00:11:28;15.20;99.90
25556;DHT22;13447;57.174;-2.112;2022-07-29T00:13:55;15.20;99.90
25556;DHT22;13447;57.174;-2.112;2022-07-29T00:16:22;15.10;99.90
25556;DHT22;13447;57.174;-2.112;2022-07-29T00:18:49;15.20;99.90
25556;DHT22;13447;57.174;-2.112;2022-07-29T00:21:16;15.10;99.90
25556;DHT22;13447;57.174;-2.112;2022-07-29T00:23:43;15.10;99.90
25556;DHT22;13447;57.174;-2.112;2022-07-29T00:26:10;15.10;99.90
25556;DHT22;13447;57.174;-2.112;2022-07-29T00:28:37;15.00;99.90
25556;DHT22;13447;57.174;-2.112;2022-07-29T00:31:04;15.00;99.90
25556;DHT22;13447;57.174;-2.112;2022-07-29T00:33:31;15.00;99.90
25556;DHT22;13447;57.174;-2.112;2022-07-29T00:35:58;15.00;99.90
25556;DHT22;13447;57.174;-2.112;2022-07-29T00:38:25;15.00;99.90
25556;DHT22;13447;57.174;-2.112;2022-07-29T00:40:52;14.90;99.90
25556;DHT22;13447;57.174;-2.112;2022-07-29T00:43:19;14.90;99.90
25556;DHT22;13447;57.174;-2.112;2022-07-29T00:45:46;14.90;99.90
25556;DHT22;13447;57.174;-2.112;2022-07-29T00:48:13;14.90;99.90
25556;DHT22;13447;57.174;-2.112;2022-07-29T00:50:40;14.90;99.90
25556;DHT22;13447;57.174;-2.112;2022-07-29T00:53:07;14.90;99.90
25556;DHT22;13447;57.174;-2.112;2022-07-29T00:55:35;14.90;99.90
25556;DHT22;13447;57.174;-2.112;2022-07-29T00:58:02;14.90;99.90
25556;DHT22;13447;57.174;-2.112;2022-07-29T01:00:30;14.90;99.90
25556;DHT22;13447;57.174;-2.112;2022-07-29T01:02:57;14.80;99.90
25556;DHT22;13447;57.174;-2.112;2022-07-29T01:05:26;14.90;99.90
25556;DHT22;13447;57.174;-2.112;2022-07-29T01:08:15;14.80;99.90
25556;DHT22;13447;57.174;-2.112;2022-07-29T01:10:43;14.80;99.90
25556;DHT22;13447;57.174;-2.112;2022-07-29T01:13:11;14.70;99.90
25556;DHT22;13447;57.174;-2.112;2022-07-29T01:15:45;14.70;99.90
25556;DHT22;13447;57.174;-2.112;2022-07-29T01:18:20;14.70;99.90
25556;DHT22;13447;57.174;-2.112;2022-07-29T01:24:39;14.70;99.90
25556;DHT22;13447;57.174;-2.112;2022-07-29T01:26:55;14.70;99.90
25556;DHT22;13447;57.174;-2.112;2022-07-29T01:29:28;14.70;99.90
25556;DHT22;13447;57.174;-2.112;2022-07-29T01:32:12;14.70;99.90
25556;DHT22;13447;57.174;-2.112;2022-07-29T01:35:04;14.70;99.90
25556;DHT22;13447;57.174;-2.112;2022-07-29T01:38:25;14.70;99.90
25556;DHT22;13447;57.174;-2.112;2022-07-29T01:40:52;14.80;99.90
25556;DHT22;13447;57.174;-2.112;2022-07-29T01:43:23;14.80;99.90
25556;DHT22;13447;57.174;-2.112;2022-07-29T01:45:59;14.80;99.90
25556;DHT22;13447;57.174;-2.112;2022-07-29T01:48:34;14.80;99.90
25556;DHT22;13447;57.174;-2.112;2022-07-29T01:51:33;14.80;99.90
25556;DHT22;13447;57.174;-2.112;2022-07-29T01:54:18;14.80;99.90
25556;DHT22;13447;57.174;-2.112;2022-07-29T01:56:49;14.80;99.90
25556;DHT22;13447;57.174;-2.112;2022-07-29T01:59:18;14.80;99.90
25556;DHT22;13447;57.174;-2.112;2022-07-29T02:01:47;14.90;99.90
25556;DHT22;13447;57.174;-2.112;2022-07-29T02:04:20;14.80;99.90
25556;DHT22;13447;57.174;-2.112;2022-07-29T02:07:00;14.90;99.90
25556;DHT22;13447;57.174;-2.112;2022-07-29T02:09:29;14.90;99.90
25556;DHT22;13447;57.174;-2.112;2022-07-29T02:11:57;14.80;99.90
25556;DHT22;13447;57.174;-2.112;2022-07-29T02:14:27;14.80;99.90
25556;DHT22;13447;57.174;-2.112;2022-07-29T02:16:56;14.80;99.90
25556;DHT22;13447;57.174;-2.112;2022-07-29T02:19:26;14.80;99.90
25556;DHT22;13447;57.174;-2.112;2022-07-29T02:21:55;14.80;99.90
25556;DHT22;13447;57.174;-2.112;2022-07-29T02:24:23;14.80;99.90
25556;DHT22;13447;57.174;-2.112;2022-07-29T02:26:52;14.80;99.90
25556;DHT22;13447;57.174;-2.112;2022-07-29T02:29:21;14.80;99.90
25556;DHT22;13447;57.174;-2.112;2022-07-29T02:31:50;14.80;99.90
25556;DHT22;13447;57.174;-2.112;2022-07-29T02:34:19;14.70;99.90
25556;DHT22;13447;57.174;-2.112;2022-07-29T02:36:48;14.70;99.90
25556;DHT22;13447;57.174;-2.112;2022-07-29T02:39:16;14.70;99.90
25556;DHT22;13447;57.174;-2.112;2022-07-29T02:41:45;14.80;99.90
25556;DHT22;13447;57.174;-2.112;2022-07-29T02:44:15;14.70;99.90
25556;DHT22;13447;57.174;-2.112;2022-07-29T02:47:11;14.70;99.90
25556;DHT22;13447;57.174;-2.112;2022-07-29T02:52:34;14.70;99.90
25556;DHT22;13447;57.174;-2.112;2022-07-29T02:55:10;14.70;99.90
25556;DHT22;13447;57.174;-2.112;2022-07-29T02:57:47;14.70;99.90
25556;DHT22;13447;57.174;-2.112;2022-07-29T03:00:21;14.70;99.90
25556;DHT22;13447;57.174;-2.112;2022-07-29T03:02:52;14.70;99.90
25556;DHT22;13447;57.174;-2.112;2022-07-29T03:05:21;14.70;99.90
25556;DHT22;13447;57.174;-2.112;2022-07-29T03:07:58;14.70;99.90
25556;DHT22;13447;57.174;-2.112;2022-07-29T03:10:27;14.60;99.90
25556;DHT22;13447;57.174;-2.112;2022-07-29T03:12:55;14.60;99.90
25556;DHT22;13447;57.174;-2.112;2022-07-29T03:15:25;14.60;99.90
25556;DHT22;13447;57.174;-2.112;2022-07-29T03:17:53;14.50;99.90
25556;DHT22;13447;57.174;-2.112;2022-07-29T03:20:20;14.60;99.90
25556;DHT22;13447;57.174;-2.112;2022-07-29T03:22:48;14.50;99.90
25556;DHT22;13447;57.174;-2.112;2022-07-29T03:25:17;14.50;99.90
25556;DHT22;13447;57.174;-2.112;2022-07-29T03:27:45;14.50;99.90
25556;DHT22;13447;57.174;-2.112;2022-07-29T03:30:13;14.50;99.90
25556;DHT22;13447;57.174;-2.112;2022-07-29T03:32:45;14.50;99.90
25556;DHT22;13447;57.174;-2.112;2022-07-29T03:35:13;14.50;99.90
25556;DHT22;13447;57.174;-2.112;2022-07-29T03:37:40;14.50;99.90
25556;DHT22;13447;57.174;-2.112;2022-07-29T03:40:08;14.50;99.90
25556;DHT22;13447;57.174;-2.112;2022-07-29T03:42:39;14.50;99.90
25556;DHT22;13447;57.174;-2.112;2022-07-29T03:45:11;14.50;99.90
25556;DHT22;13447;57.174;-2.112;2022-07-29T03:47:43;14.50;99.90
25556;DHT22;13447;57.174;-2.112;2022-07-29T03:50:17;14.50;99.90
25556;DHT22;13447;57.174;-2.112;2022-07-29T03:52:46;14.50;99.90
25556;DHT22;13447;57.174;-2.112;2022-07-29T03:55:14;14.40;99.90
25556;DHT22;13447;57.174;-2.112;2022-07-29T03:57:42;14.40;99.90
25556;DHT22;13447;57.174;-2.112;2022-07-29T04:00:11;14.30;99.90
25556;DHT22;13447;57.174;-2.112;2022-07-29T04:02:38;14.30;99.90
25556;DHT22;13447;57.174;-2.112;2022-07-29T04:05:12;14.30;99.90
25556;DHT22;13447;57.174;-2.112;2022-07-29T04:07:40;14.30;99.90
25556;DHT22;13447;57.174;-2.112;2022-07-29T04:10:07;14.30;99.90
25556;DHT22;13447;57.174;-2.112;2022-07-29T04:12:35;14.30;99.90
25556;DHT22;13447;57.174;-2.112;2022-07-29T04:15:05;14.30;99.90
25556;DHT22;13447;57.174;-2.112;2022-07-29T04:17:32;14.30;99.90
25556;DHT22;13447;57.174;-2.112;2022-07-29T04:19:59;14.40;99.90
25556;DHT22;13447;57.174;-2.112;2022-07-29T04:22:26;14.40;99.90
25556;DHT22;13447;57.174;-2.112;2022-07-29T04:24:53;14.50;99.90
25556;DHT22;13447;57.174;-2.112;2022-07-29T04:27:20;14.40;99.90
25556;DHT22;13447;57.174;-2.112;2022-07-29T04:29:47;14.50;99.90
25556;DHT22;13447;57.174;-2.112;2022-07-29T04:32:26;14.50;99.90
25556;DHT22;13447;57.174;-2.112;2022-07-29T04:34:53;14.50;99.90
25556;DHT22;13447;57.174;-2.112;2022-07-29T04:37:20;14.60;99.90
25556;DHT22;13447;57.174;-2.112;2022-07-29T04:39:47;14.50;99.90
25556;DHT22;13447;57.174;-2.112;2022-07-29T04:42:14;14.60;99.90
25556;DHT22;13447;57.174;-2.112;2022-07-29T04:44:42;14.60;99.90
25556;DHT22;13447;57.174;-2.112;2022-07-29T04:47:09;14.60;99.90
25556;DHT22;13447;57.174;-2.112;2022-07-29T04:49:39;14.60;99.90
25556;DHT22;13447;57.174;-2.112;2022-07-29T04:52:06;14.60;99.90
25556;DHT22;13447;57.174;-2.112;2022-07-29T04:54:34;14.70;99.90
25556;DHT22;13447;57.174;-2.112;2022-07-29T04:57:01;14.70;99.90
25556;DHT22;13447;57.174;-2.112;2022-07-29T04:59:28;14.70;99.90
25556;DHT22;13447;57.174;-2.112;2022-07-29T05:01:55;14.70;99.90
25556;DHT22;13447;57.174;-2.112;2022-07-29T05:04:22;14.80;99.90
25556;DHT22;13447;57.174;-2.112;2022-07-29T05:06:49;14.80;99.90
25556;DHT22;13447;57.174;-2.112;2022-07-29T05:09:16;14.80;99.90
25556;DHT22;13447;57.174;-2.112;2022-07-29T05:11:43;14.80;99.90
25556;DHT22;13447;57.174;-2.112;2022-07-29T05:14:10;14.80;99.90
25556;DHT22;13447;57.174;-2.112;2022-07-29T05:16:37;14.70;99.90
25556;DHT22;13447;57.174;-2.112;2022-07-29T05:19:06;14.80;99.90
25556;DHT22;13447;57.174;-2.112;2022-07-29T05:21:39;14.70;99.90
25556;DHT22;13447;57.174;-2.112;2022-07-29T05:24:06;14.80;99.90
25556;DHT22;13447;57.174;-2.112;2022-07-29T05:26:33;14.70;99.90
25556;DHT22;13447;57.174;-2.112;2022-07-29T05:29:00;14.70;99.90
25556;DHT22;13447;57.174;-2.112;2022-07-29T05:31:27;14.70;99.90
25556;DHT22;13447;57.174;-2.112;2022-07-29T05:33:54;14.70;99.90
25556;DHT22;13447;57.174;-2.112;2022-07-29T05:36:21;14.70;99.90
25556;DHT22;13447;57.174;-2.112;2022-07-29T05:38:48;14.80;99.90
25556;DHT22;13447;57.174;-2.112;2022-07-29T05:41:15;14.70;99.90
25556;DHT22;13447;57.174;-2.112;2022-07-29T05:43:41;14.70;99.90
25556;DHT22;13447;57.174;-2.112;2022-07-29T05:46:08;14.80;99.90
25556;DHT22;13447;57.174;-2.112;2022-07-29T05:48:35;14.80;99.90
25556;DHT22;13447;57.174;-2.112;2022-07-29T05:51:03;14.80;99.90
25556;DHT22;13447;57.174;-2.112;2022-07-29T05:53:30;14.80;99.90
25556;DHT22;13447;57.174;-2.112;2022-07-29T05:55:57;14.80;99.90
25556;DHT22;13447;57.174;-2.112;2022-07-29T06:00:53;14.90;99.90
25556;DHT22;13447;57.174;-2.112;2022-07-29T06:03:22;14.90;99.90
25556;DHT22;13447;57.174;-2.112;2022-07-29T06:05:49;14.90;99.90
25556;DHT22;13447;57.174;-2.112;2022-07-29T06:08:16;14.90;99.90
25556;DHT22;13447;57.174;-2.112;2022-07-29T06:10:44;14.90;99.90
25556;DHT22;13447;57.174;-2.112;2022-07-29T06:13:12;15.00;99.90
25556;DHT22;13447;57.174;-2.112;2022-07-29T06:15:40;14.90;99.90
25556;DHT22;13447;57.174;-2.112;2022-07-29T06:18:07;15.00;99.90
25556;DHT22;13447;57.174;-2.112;2022-07-29T06:20:36;15.00;99.90
25556;DHT22;13447;57.174;-2.112;2022-07-29T06:23:03;15.00;99.90
25556;DHT22;13447;57.174;-2.112;2022-07-29T06:25:31;15.00;99.90
25556;DHT22;13447;57.174;-2.112;2022-07-29T06:28:01;15.10;99.90
25556;DHT22;13447;57.174;-2.112;2022-07-29T06:30:28;15.10;99.90
25556;DHT22;13447;57.174;-2.112;2022-07-29T06:32:56;15.10;99.90
25556;DHT22;13447;57.174;-2.112;2022-07-29T06:35:23;15.20;99.90
25556;DHT22;13447;57.174;-2.112;2022-07-29T06:38:07;15.20;99.90
25556;DHT22;13447;57.174;-2.112;2022-07-29T06:40:54;15.20;99.90
25556;DHT22;13447;57.174;-2.112;2022-07-29T06:43:30;15.20;99.90
25556;DHT22;13447;57.174;-2.112;2022-07-29T06:46:00;15.10;99.90
25556;DHT22;13447;57.174;-2.112;2022-07-29T06:48:28;15.20;99.90
25556;DHT22;13447;57.174;-2.112;2022-07-29T06:50:55;15.20;99.90
25556;DHT22;13447;57.174;-2.112;2022-07-29T06:53:23;15.30;99.90
25556;DHT22;13447;57.174;-2.112;2022-07-29T06:55:50;15.30;99.90
25556;DHT22;13447;57.174;-2.112;2022-07-29T06:58:17;15.20;99.90
25556;DHT22;13447;57.174;-2.112;2022-07-29T07:00:47;15.30;99.90
25556;DHT22;13447;57.174;-2.112;2022-07-29T07:03:16;15.30;99.90
25556;DHT22;13447;57.174;-2.112;2022-07-29T07:05:44;15.40;99.90
25556;DHT22;13447;57.174;-2.112;2022-07-29T07:08:12;15.40;99.90
25556;DHT22;13447;57.174;-2.112;2022-07-29T07:10:39;15.40;99.90
25556;DHT22;13447;57.174;-2.112;2022-07-29T07:13:07;15.30;99.90
25556;DHT22;13447;57.174;-2.112;2022-07-29T07:15:35;15.30;99.90
25556;DHT22;13447;57.174;-2.112;2022-07-29T07:18:05;15.30;99.90
25556;DHT22;13447;57.174;-2.112;2022-07-29T07:20:33;15.30;99.90
25556;DHT22;13447;57.174;-2.112;2022-07-29T07:23:01;15.30;99.90
25556;DHT22;13447;57.174;-2.112;2022-07-29T07:25:28;15.40;99.90
25556;DHT22;13447;57.174;-2.112;2022-07-29T07:27:55;15.40;99.90
25556;DHT22;13447;57.174;-2.112;2022-07-29T07:30:22;15.40;99.90
25556;DHT22;13447;57.174;-2.112;2022-07-29T07:32:49;15.40;99.90
25556;DHT22;13447;57.174;-2.112;2022-07-29T07:35:16;15.60;99.90
25556;DHT22;13447;57.174;-2.112;2022-07-29T07:37:43;15.60;99.90
25556;DHT22;13447;57.174;-2.112;2022-07-29T07:42:44;15.60;99.90
25556;DHT22;13447;57.174;-2.112;2022-07-29T07:45:11;15.70;99.90
25556;DHT22;13447;57.174;-2.112;2022-07-29T07:47:42;15.80;99.90
25556;DHT22;13447;57.174;-2.112;2022-07-29T07:50:11;15.90;99.90
25556;DHT22;13447;57.174;-2.112;2022-07-29T07:52:49;16.00;99.90
25556;DHT22;13447;57.174;-2.112;2022-07-29T07:55:17;16.10;99.90
25556;DHT22;13447;57.174;-2.112;2022-07-29T07:57:44;16.10;99.90
25556;DHT22;13447;57.174;-2.112;2022-07-29T08:00:13;16.20;99.90
25556;DHT22;13447;57.174;-2.112;2022-07-29T08:02:41;16.20;99.90
25556;DHT22;13447;57.174;-2.112;2022-07-29T08:05:10;16.30;99.90
25556;DHT22;13447;57.174;-2.112;2022-07-29T08:10:06;16.50;99.90
25556;DHT22;13447;57.174;-2.112;2022-07-29T08:15:00;16.80;99.90
25556;DHT22;13447;57.174;-2.112;2022-07-29T08:17:27;16.90;99.90
25556;DHT22;13447;57.174;-2.112;2022-07-29T08:19:54;17.20;99.90
25556;DHT22;13447;57.174;-2.112;2022-07-29T08:22:21;17.30;99.90
25556;DHT22;13447;57.174;-2.112;2022-07-29T08:24:49;17.30;99.90
25556;DHT22;13447;57.174;-2.112;2022-07-29T08:27:23;17.30;99.90
25556;DHT22;13447;57.174;-2.112;2022-07-29T08:30:09;17.20;99.90
25556;DHT22;13447;57.174;-2.112;2022-07-29T08:35:23;17.80;99.90
25556;DHT22;13447;57.174;-2.112;2022-07-29T08:37:50;18.20;99.90
25556;DHT22;13447;57.174;-2.112;2022-07-29T08:40:19;18.60;99.90
25556;DHT22;13447;57.174;-2.112;2022-07-29T08:42:59;18.70;99.90
25556;DHT22;13447;57.174;-2.112;2022-07-29T08:45:28;18.90;99.90
25556;DHT22;13447;57.174;-2.112;2022-07-29T08:47:56;19.20;99.90
25556;DHT22;13447;57.174;-2.112;2022-07-29T08:50:23;18.80;99.90
25556;DHT22;13447;57.174;-2.112;2022-07-29T08:52:51;18.90;99.90
25556;DHT22;13447;57.174;-2.112;2022-07-29T08:55:25;18.90;99.90
25556;DHT22;13447;57.174;-2.112;2022-07-29T08:57:52;18.80;99.90
25556;DHT22;13447;57.174;-2.112;2022-07-29T09:00:23;18.80;99.90
25556;DHT22;13447;57.174;-2.112;2022-07-29T09:02:56;18.80;99.90
25556;DHT22;13447;57.174;-2.112;2022-07-29T09:05:24;18.90;99.90
25556;DHT22;13447;57.174;-2.112;2022-07-29T09:07:52;19.20;99.90
25556;DHT22;13447;57.174;-2.112;2022-07-29T09:10:20;19.70;99.90
25556;DHT22;13447;57.174;-2.112;2022-07-29T09:12:47;19.70;99.90
25556;DHT22;13447;57.174;-2.112;2022-07-29T09:15:15;19.60;99.90
25556;DHT22;13447;57.174;-2.112;2022-07-29T09:17:49;19.40;99.90
25556;DHT22;13447;57.174;-2.112;2022-07-29T09:20:20;19.40;99.90
25556;DHT22;13447;57.174;-2.112;2022-07-29T09:22:49;19.20;99.90
25556;DHT22;13447;57.174;-2.112;2022-07-29T09:25:36;18.80;99.90
25556;DHT22;13447;57.174;-2.112;2022-07-29T09:28:12;19.40;99.90
25556;DHT22;13447;57.174;-2.112;2022-07-29T09:33:20;20.00;99.90
25556;DHT22;13447;57.174;-2.112;2022-07-29T09:36:05;20.40;99.90
25556;DHT22;13447;57.174;-2.112;2022-07-29T09:38:34;20.70;98.90
25556;DHT22;13447;57.174;-2.112;2022-07-29T09:41:03;20.50;99.70
25556;DHT22;13447;57.174;-2.112;2022-07-29T09:43:32;20.60;97.50
25556;DHT22;13447;57.174;-2.112;2022-07-29T09:46:14;20.70;97.40
25556;DHT22;13447;57.174;-2.112;2022-07-29T09:48:41;20.90;96.30
25556;DHT22;13447;57.174;-2.112;2022-07-29T09:51:18;20.70;96.90
25556;DHT22;13447;57.174;-2.112;2022-07-29T09:53:52;20.80;96.30
25556;DHT22;13447;57.174;-2.112;2022-07-29T09:56:19;21.00;97.50
25556;DHT22;13447;57.174;-2.112;2022-07-29T09:58:46;20.80;95.70
25556;DHT22;13447;57.174;-2.112;2022-07-29T10:01:14;20.20;96.90
25556;DHT22;13447;57.174;-2.112;2022-07-29T10:03:52;20.60;97.40
25556;DHT22;13447;57.174;-2.112;2022-07-29T10:06:19;21.00;95.80
25556;DHT22;13447;57.174;-2.112;2022-07-29T10:08:46;20.80;96.30
25556;DHT22;13447;57.174;-2.112;2022-07-29T10:11:16;20.90;95.60
25556;DHT22;13447;57.174;-2.112;2022-07-29T10:13:45;21.20;95.20
25556;DHT22;13447;57.174;-2.112;2022-07-29T10:16:14;21.40;94.10
25556;DHT22;13447;57.174;-2.112;2022-07-29T10:18:42;21.50;94.00
25556;DHT22;13447;57.174;-2.112;2022-07-29T10:21:10;21.30;93.90
25556;DHT22;13447;57.174;-2.112;2022-07-29T10:23:58;21.40;93.50
25556;DHT22;13447;57.174;-2.112;2022-07-29T10:26:28;21.90;99.70
25556;DHT22;13447;57.174;-2.112;2022-07-29T10:28:55;22.20;92.40
25556;DHT22;13447;57.174;-2.112;2022-07-29T10:31:36;22.30;89.30
25556;DHT22;13447;57.174;-2.112;2022-07-29T10:34:13;22.40;94.30
25556;DHT22;13447;57.174;-2.112;2022-07-29T10:37:07;22.60;90.00
25556;DHT22;13447;57.174;-2.112;2022-07-29T10:39:56;22.70;86.50
25556;DHT22;13447;57.174;-2.112;2022-07-29T10:42:28;22.50;86.00
25556;DHT22;13447;57.174;-2.112;2022-07-29T10:47:45;21.80;86.40
25556;DHT22;13447;57.174;-2.112;2022-07-29T10:50:12;22.10;87.40
25556;DHT22;13447;57.174;-2.112;2022-07-29T10:52:54;22.10;88.80
25556;DHT22;13447;57.174;-2.112;2022-07-29T10:55:37;22.40;88.60
25556;DHT22;13447;57.174;-2.112;2022-07-29T10:58:18;21.80;88.10
25556;DHT22;13447;57.174;-2.112;2022-07-29T11:00:50;22.10;90.40
25556;DHT22;13447;57.174;-2.112;2022-07-29T11:03:43;22.50;88.20
25556;DHT22;13447;57.174;-2.112;2022-07-29T11:06:18;21.30;88.50
25556;DHT22;13447;57.174;-2.112;2022-07-29T11:09:16;21.40;90.70
25556;DHT22;13447;57.174;-2.112;2022-07-29T11:11:51;21.60;90.40
25556;DHT22;13447;57.174;-2.112;2022-07-29T11:17:24;22.00;90.10
25556;DHT22;13447;57.174;-2.112;2022-07-29T11:19:58;22.40;88.80
25556;DHT22;13447;57.174;-2.112;2022-07-29T11:22:39;22.30;87.10
25556;DHT22;13447;57.174;-2.112;2022-07-29T11:25:17;22.30;86.40
25556;DHT22;13447;57.174;-2.112;2022-07-29T11:28:13;22.50;85.90
25556;DHT22;13447;57.174;-2.112;2022-07-29T11:30:53;21.90;86.50
25556;DHT22;13447;57.174;-2.112;2022-07-29T11:33:33;22.10;87.80
25556;DHT22;13447;57.174;-2.112;2022-07-29T11:36:20;22.30;86.90
25556;DHT22;13447;57.174;-2.112;2022-07-29T11:39:24;22.10;87.90
25556;DHT22;13447;57.174;-2.112;2022-07-29T11:47:56;21.50;86.30
25556;DHT22;13447;57.174;-2.112;2022-07-29T11:50:47;21.70;90.10
25556;DHT22;13447;57.174;-2.112;2022-07-29T11:53:15;22.00;87.30
25556;DHT22;13447;57.174;-2.112;2022-07-29T11:55:43;22.20;87.00
25556;DHT22;13447;57.174;-2.112;2022-07-29T11:58:30;22.60;84.40
25556;DHT22;13447;57.174;-2.112;2022-07-29T12:00:57;22.70;84.30
25556;DHT22;13447;57.174;-2.112;2022-07-29T12:03:31;21.90;85.60
25556;DHT22;13447;57.174;-2.112;2022-07-29T12:06:12;21.50;89.60
25556;DHT22;13447;57.174;-2.112;2022-07-29T12:08:44;22.00;87.80
25556;DHT22;13447;57.174;-2.112;2022-07-29T12:11:17;22.60;84.50
25556;DHT22;13447;57.174;-2.112;2022-07-29T12:13:47;22.60;84.20
25556;DHT22;13447;57.174;-2.112;2022-07-29T12:16:15;23.00;84.00
25556;DHT22;13447;57.174;-2.112;2022-07-29T12:18:59;23.40;83.00
25556;DHT22;13447;57.174;-2.112;2022-07-29T12:21:28;22.70;82.90
25556;DHT22;13447;57.174;-2.112;2022-07-29T12:23:57;22.90;83.30
25556;DHT22;13447;57.174;-2.112;2022-07-29T12:26:32;22.80;84.00
25556;DHT22;13447;57.174;-2.112;2022-07-29T12:29:02;23.50;80.20
25556;DHT22;13447;57.174;-2.112;2022-07-29T12:31:29;23.40;80.00
25556;DHT22;13447;57.174;-2.112;2022-07-29T12:36:40;23.50;99.90
25556;DHT22;13447;57.174;-2.112;2022-07-29T12:39:07;23.40;99.90
25556;DHT22;13447;57.174;-2.112;2022-07-29T12:41:35;23.50;99.90
25556;DHT22;13447;57.174;-2.112;2022-07-29T12:44:03;22.90;99.90
25556;DHT22;13447;57.174;-2.112;2022-07-29T12:46:30;22.90;99.90
25556;DHT22;13447;57.174;-2.112;2022-07-29T12:48:57;22.80;99.90
25556;DHT22;13447;57.174;-2.112;2022-07-29T12:51:34;22.70;81.80
25556;DHT22;13447;57.174;-2.112;2022-07-29T12:54:03;22.50;81.70
25556;DHT22;13447;57.174;-2.112;2022-07-29T12:56:31;22.40;80.90
25556;DHT22;13447;57.174;-2.112;2022-07-29T12:59:20;22.40;82.60
25556;DHT22;13447;57.174;-2.112;2022-07-29T13:01:50;23.00;82.00
25556;DHT22;13447;57.174;-2.112;2022-07-29T13:04:44;23.40;78.60
25556;DHT22;13447;57.174;-2.112;2022-07-29T13:07:25;23.30;98.10
25556;DHT22;13447;57.174;-2.112;2022-07-29T13:10:17;22.90;83.00
25556;DHT22;13447;57.174;-2.112;2022-07-29T13:13:13;22.90;81.30
25556;DHT22;13447;57.174;-2.112;2022-07-29T13:15:42;23.20;82.70
25556;DHT22;13447;57.174;-2.112;2022-07-29T13:18:32;23.10;81.70
25556;DHT22;13447;57.174;-2.112;2022-07-29T13:21:15;22.80;85.80
25556;DHT22;13447;57.174;-2.112;2022-07-29T13:23:44;22.60;84.40
25556;DHT22;13447;57.174;-2.112;2022-07-29T13:26:11;23.30;82.90
25556;DHT22;13447;57.174;-2.112;2022-07-29T13:28:39;22.60;84.20
25556;DHT22;13447;57.174;-2.112;2022-07-29T13:31:09;22.40;83.80
25556;DHT22;13447;57.174;-2.112;2022-07-29T13:33:37;22.30;85.70
25556;DHT22;13447;57.174;-2.112;2022-07-29T13:36:04;22.80;85.70
25556;DHT22;13447;57.174;-2.112;2022-07-29T13:38:31;22.90;85.20
25556;DHT22;13447;57.174;-2.112;2022-07-29T13:40:58;22.10;86.00
25556;DHT22;13447;57.174;-2.112;2022-07-29T13:45:52;21.10;89.70
25556;DHT22;13447;57.174;-2.112;2022-07-29T13:48:19;20.00;92.60
25556;DHT22;13447;57.174;-2.112;2022-07-29T13:50:47;19.60;95.30
25556;DHT22;13447;57.174;-2.112;2022-07-29T13:53:14;19.60;96.70
25556;DHT22;13447;57.174;-2.112;2022-07-29T13:55:43;19.70;97.30
25556;DHT22;13447;57.174;-2.112;2022-07-29T13:58:11;19.70;96.80
25556;DHT22;13447;57.174;-2.112;2022-07-29T14:00:37;19.70;96.90
25556;DHT22;13447;57.174;-2.112;2022-07-29T14:03:04;19.80;97.50
25556;DHT22;13447;57.174;-2.112;2022-07-29T14:05:33;19.30;97.00
25556;DHT22;13447;57.174;-2.112;2022-07-29T14:08:00;19.40;98.50
25556;DHT22;13447;57.174;-2.112;2022-07-29T14:10:27;19.10;98.80
25556;DHT22;13447;57.174;-2.112;2022-07-29T14:12:54;19.40;99.90
25556;DHT22;13447;57.174;-2.112;2022-07-29T14:15:21;19.20;99.30
25556;DHT22;13447;57.174;-2.112;2022-07-29T14:17:48;18.90;99.90
25556;DHT22;13447;57.174;-2.112;2022-07-29T14:20:15;18.90;99.90
25556;DHT22;13447;57.174;-2.112;2022-07-29T14:22:42;19.00;99.90
25556;DHT22;13447;57.174;-2.112;2022-07-29T14:25:10;18.90;99.90
25556;DHT22;13447;57.174;-2.112;2022-07-29T14:27:42;19.00;99.90
25556;DHT22;13447;57.174;-2.112;2022-07-29T14:30:10;19.00;99.90
25556;DHT22;13447;57.174;-2.112;2022-07-29T14:32:37;18.90;99.90
25556;DHT22;13447;57.174;-2.112;2022-07-29T14:35:05;18.80;99.90
25556;DHT22;13447;57.174;-2.112;2022-07-29T14:37:32;19.00;99.90
25556;DHT22;13447;57.174;-2.112;2022-07-29T14:40:06;19.10;99.90
25556;DHT22;13447;57.174;-2.112;2022-07-29T14:42:33;18.90;99.90
25556;DHT22;13447;57.174;-2.112;2022-07-29T14:45:00;18.60;99.90
25556;DHT22;13447;57.174;-2.112;2022-07-29T14:47:27;18.70;99.90
25556;DHT22;13447;57.174;-2.112;2022-07-29T14:49:54;18.70;99.90
25556;DHT22;13447;57.174;-2.112;2022-07-29T14:52:21;18.70;99.90
25556;DHT22;13447;57.174;-2.112;2022-07-29T14:54:48;18.70;99.90
25556;DHT22;13447;57.174;-2.112;2022-07-29T14:57:15;18.80;99.90
25556;DHT22;13447;57.174;-2.112;2022-07-29T14:59:43;18.70;99.90
25556;DHT22;13447;57.174;-2.112;2022-07-29T15:02:10;18.80;99.90
25556;DHT22;13447;57.174;-2.112;2022-07-29T15:04:38;18.80;99.90
25556;DHT22;13447;57.174;-2.112;2022-07-29T15:07:05;18.70;99.90
25556;DHT22;13447;57.174;-2.112;2022-07-29T15:09:32;18.70;99.90
25556;DHT22;13447;57.174;-2.112;2022-07-29T15:12:15;18.80;99.90
25556;DHT22;13447;57.174;-2.112;2022-07-29T15:14:42;18.60;99.90
25556;DHT22;13447;57.174;-2.112;2022-07-29T15:17:09;18.30;99.90
25556;DHT22;13447;57.174;-2.112;2022-07-29T15:19:36;18.40;99.90
25556;DHT22;13447;57.174;-2.112;2022-07-29T15:22:04;18.60;99.90
25556;DHT22;13447;57.174;-2.112;2022-07-29T15:24:33;18.60;99.90
25556;DHT22;13447;57.174;-2.112;2022-07-29T15:27:00;18.70;99.90
25556;DHT22;13447;57.174;-2.112;2022-07-29T15:29:27;18.80;99.90
25556;DHT22;13447;57.174;-2.112;2022-07-29T15:31:54;18.70;99.90
25556;DHT22;13447;57.174;-2.112;2022-07-29T15:34:22;18.70;99.90
25556;DHT22;13447;57.174;-2.112;2022-07-29T15:36:51;18.80;99.90
25556;DHT22;13447;57.174;-2.112;2022-07-29T15:39:20;18.60;99.90
25556;DHT22;13447;57.174;-2.112;2022-07-29T15:41:48;18.60;99.90
25556;DHT22;13447;57.174;-2.112;2022-07-29T15:44:15;18.60;99.90
25556;DHT22;13447;57.174;-2.112;2022-07-29T15:46:42;18.40;99.90
25556;DHT22;13447;57.174;-2.112;2022-07-29T15:49:36;18.30;99.90
25556;DHT22;13447;57.174;-2.112;2022-07-29T15:52:15;18.40;99.90
25556;DHT22;13447;57.174;-2.112;2022-07-29T15:54:43;18.40;99.90
25556;DHT22;13447;57.174;-2.112;2022-07-29T15:57:11;18.30;99.90
25556;DHT22;13447;57.174;-2.112;2022-07-29T15:59:38;18.50;99.90
25556;DHT22;13447;57.174;-2.112;2022-07-29T16:02:05;18.30;99.90
25556;DHT22;13447;57.174;-2.112;2022-07-29T16:04:32;18.30;99.90
25556;DHT22;13447;57.174;-2.112;2022-07-29T16:06:59;18.40;99.90
25556;DHT22;13447;57.174;-2.112;2022-07-29T16:09:27;18.50;99.90
25556;DHT22;13447;57.174;-2.112;2022-07-29T16:11:54;18.60;99.90
25556;DHT22;13447;57.174;-2.112;2022-07-29T16:14:22;18.60;99.90
25556;DHT22;13447;57.174;-2.112;2022-07-29T16:16:53;18.70;99.90